تهران, ایران

02:21 PM IRST on ژانویه 17, 2017 (GMT +0330)
Mehrabad International | | Change Station

Elev 3907 ft 35.68 °N, 51.35 °E | Updated 21 minutes ago

Haze
مه
50 °F
Feels Like 50 °F
N
7
باد متغير باد from جنوب غربی

امروز
High -- | Low -- °F
--% Chance of Precip.
دیروز
High -- | Low -- °F
Precip. -- در
فشار 30.12 در
ديد 3.1 مايل، ميل (در برابر كيلومتر
ابری
قطره شبنم 21 °F
رطوبت 32%
بارش باران 0.00 در
برف عمیق Not available.
7:13 AM 5:16 PM
Waning Gibbous, 73% visible
METAR OIII 171030Z 22006KT 5000 HZ NSC 10/M06 Q1020 A3014 NOSIG
فشار 30.12 در
ديد 3.1 مايل، ميل (در برابر كيلومتر
ابری
قطره شبنم 21 °F
رطوبت 32%
بارش باران 0.00 در
برف عمیق Not available.
7:13 AM 5:16 PM
Waning Gibbous, 73% visible
METAR OIII 171030Z 22006KT 5000 HZ NSC 10/M06 Q1020 A3014 NOSIG

Get Your Daily Forecast Email!

Thanks for signing up!

Be on the lookout for a verification email in your inbox.

You'll start receiving the daily forecast at 8 AM.

×

10-Day Weather Forecast

No radar image for this location.
×

Almanac

ستاره شناسی

Jan. 17, 2017 Rise Set
وقت حقیقی
تاریک و روشن اجتماعی
تاریک روشن دریایی
شفق و فلق نجومی
ماه
میزان روشنایی روز
طول روز
Tomorrow will be .
, % of the Moon is Illuminated

Today's Extremes

Country Highs Country Lows

Community

WunderPhotos

Upload Photos

1,962,540 photos uploaded!

WunderBlog® & News

Nearby

تمیزی هوا

  تمیزی هوا AQ Index آلاینده
Not available.

عمق برف

Station Depth Elevation

Earthquake Activity

شهر Distance Mag. Time & Date
Minimum magnitude displayed is 2.5.

Coastal Water Temperatures

منطقه درجه حرارت

Stations

Nearby Weather Stations

Station Location دما باد سرد قطره شبنم رطوبت باد Precip. Elev ارتقا دادن Type